createdAt,value
2019-02-15T00:07:06.926Z,6.30
2019-02-15T00:22:11.884Z,6.20
2019-02-15T00:37:16.847Z,6.10
2019-02-15T00:52:23.613Z,6.00
2019-02-15T01:07:30.040Z,6.00
2019-02-15T01:22:35.051Z,6.00
2019-02-15T01:37:41.583Z,6.00
2019-02-15T01:52:46.386Z,6.10
2019-02-15T02:07:51.694Z,6.00
2019-02-15T02:22:56.555Z,5.70
2019-02-15T02:38:01.302Z,5.30
2019-02-15T02:53:06.151Z,4.90
2019-02-15T03:08:11.027Z,4.40
2019-02-15T03:23:15.973Z,4.20
2019-02-15T03:38:22.318Z,4.00
2019-02-15T03:53:27.138Z,3.80
2019-02-15T04:08:31.862Z,3.50
2019-02-15T04:23:36.594Z,3.30
2019-02-15T04:38:41.323Z,3.00
2019-02-15T04:53:45.959Z,2.70
2019-02-15T05:08:50.889Z,2.50
2019-02-15T05:23:55.439Z,2.30
2019-02-15T05:39:00.395Z,2.20
2019-02-15T05:54:05.098Z,2.70
2019-02-15T06:09:09.984Z,2.80
2019-02-15T06:24:14.907Z,2.90
2019-02-15T06:39:19.725Z,2.90
2019-02-15T06:54:24.864Z,2.90
2019-02-15T07:09:30.029Z,3.00
2019-02-15T07:24:34.853Z,3.10
2019-02-15T07:39:39.601Z,3.20
2019-02-15T07:54:44.218Z,3.30
2019-02-15T08:09:49.117Z,3.40
2019-02-15T08:24:54.067Z,3.50
2019-02-15T08:39:58.849Z,3.80
2019-02-15T08:55:07.045Z,4.00
2019-02-15T09:10:13.030Z,4.20
2019-02-15T09:25:17.503Z,4.50
2019-02-15T09:40:22.240Z,4.70
2019-02-15T09:55:27.227Z,4.80
2019-02-15T10:10:32.377Z,5.00
2019-02-15T10:25:36.860Z,5.20
2019-02-15T10:40:41.495Z,5.30
2019-02-15T10:55:46.433Z,5.30
2019-02-15T11:10:51.190Z,5.40
2019-02-15T11:25:55.930Z,5.40
2019-02-15T11:41:01.340Z,5.50
2019-02-15T11:56:05.814Z,5.40
2019-02-15T12:11:11.856Z,5.40
2019-02-15T12:26:16.489Z,5.40
2019-02-15T12:41:20.966Z,5.50
2019-02-15T12:56:25.605Z,5.40
2019-02-15T13:11:30.567Z,5.40
2019-02-15T13:26:35.446Z,5.40
2019-02-15T13:41:40.319Z,5.30
2019-02-15T13:56:45.237Z,5.20
2019-02-15T14:11:50.205Z,5.10
2019-02-15T14:26:55.060Z,5.10
2019-02-15T14:41:59.924Z,5.00
2019-02-15T14:57:04.683Z,4.90
2019-02-15T15:12:09.444Z,4.80
2019-02-15T15:27:14.278Z,4.80
2019-02-15T15:42:19.333Z,4.70
2019-02-15T15:57:24.440Z,4.70
2019-02-15T16:12:29.213Z,4.60
2019-02-15T16:27:34.111Z,4.60
2019-02-15T16:42:38.894Z,4.60
2019-02-15T16:57:43.530Z,4.50
2019-02-15T17:12:48.524Z,4.40
2019-02-15T17:27:53.525Z,4.30
2019-02-15T17:42:58.883Z,4.30
2019-02-15T17:58:03.677Z,4.40
2019-02-15T18:13:08.568Z,4.40
2019-02-15T18:28:13.413Z,4.40
2019-02-15T18:43:17.982Z,4.40
2019-02-15T18:58:22.548Z,4.50
2019-02-15T19:13:27.268Z,4.50
2019-02-15T19:28:32.152Z,4.30
2019-02-15T19:43:36.937Z,4.30
2019-02-15T19:58:43.800Z,4.20
2019-02-15T20:13:49.849Z,4.40
2019-02-15T20:28:55.167Z,4.30
2019-02-15T20:44:00.230Z,4.20
2019-02-15T20:59:04.958Z,4.00
2019-02-15T21:14:09.539Z,4.10
2019-02-15T21:29:14.465Z,3.90
2019-02-15T21:44:23.172Z,3.70
2019-02-15T21:59:28.455Z,3.60
2019-02-15T22:14:34.649Z,3.60
2019-02-15T22:29:39.852Z,3.40
2019-02-15T22:44:44.804Z,3.30
2019-02-15T22:59:49.680Z,3.10
2019-02-15T23:14:54.449Z,3.00
2019-02-15T23:29:59.288Z,3.00
2019-02-15T23:45:04.052Z,2.80
